Time;durP1;ratioP1;P1;durP2;ratioP2;P2;SDS_P1;SDS_P2;PMS_P1;PMS_P2;Temp;Humidity;BMP_temperature;BMP_pressure;BME280_temperature;BME280_humidity;BME280_pressure;Samples;Min_cycle;Max_cycle;Signal;HPM_P1;HPM_P2
2023/07/28 00:01:53;;;;;;;;;;;17.80;99.90;;;;;;5086121;28;19928;-87
2023/07/28 00:04:19;;;;;;;;;;;17.80;99.90;;;;;;5088752;28;19974;-87
2023/07/28 00:06:44;;;;;;;;;;;17.80;99.90;;;;;;5073544;28;19928;-87
2023/07/28 00:09:10;;;;;;;;;;;17.80;99.90;;;;;;5090808;28;19965;-87
2023/07/28 00:11:36;;;;;;;;;;;17.80;99.90;;;;;;5073974;28;20402;-87
2023/07/28 00:14:01;;;;;;;;;;;17.80;99.90;;;;;;5090960;28;19951;-87
2023/07/28 00:16:27;;;;;;;;;;;17.70;99.90;;;;;;5091647;28;19977;-88
2023/07/28 00:18:52;;;;;;;;;;;17.80;99.90;;;;;;5073900;28;19924;-87
2023/07/28 00:21:18;;;;;;;;;;;17.80;99.90;;;;;;5088666;28;19938;-87
2023/07/28 00:23:43;;;;;;;;;;;17.80;99.90;;;;;;5073557;28;19928;-87
2023/07/28 00:26:09;;;;;;;;;;;17.80;99.90;;;;;;5091277;28;19924;-87
2023/07/28 00:28:34;;;;;;;;;;;17.80;99.90;;;;;;5073540;28;19935;-87
2023/07/28 00:31:00;;;;;;;;;;;17.80;99.90;;;;;;5069356;28;20061;-87
2023/07/28 00:33:25;;;;;;;;;;;17.80;99.90;;;;;;5069710;28;19935;-87
2023/07/28 00:35:51;;;;;;;;;;;17.80;99.90;;;;;;5084916;28;19924;-87
2023/07/28 00:38:17;;;;;;;;;;;17.80;99.90;;;;;;5051752;28;20297;-87
2023/07/28 00:40:42;;;;;;;;;;;17.80;99.90;;;;;;5072985;28;19924;-86
2023/07/28 00:43:08;;;;;;;;;;;17.80;99.90;;;;;;5072926;28;19928;-88
2023/07/28 00:45:34;;;;;;;;;;;17.80;99.90;;;;;;5089207;28;19928;-86
2023/07/28 00:48:00;;;;;;;;;;;17.80;99.90;;;;;;5073320;28;20042;-86
2023/07/28 00:50:26;;;;;;;;;;;17.80;99.90;;;;;;5092505;28;19924;-86
2023/07/28 00:52:51;;;;;;;;;;;17.70;99.90;;;;;;5074176;28;19935;-87
2023/07/28 00:55:17;;;;;;;;;;;17.80;99.90;;;;;;5072934;28;20312;-86
2023/07/28 00:57:43;;;;;;;;;;;17.70;99.90;;;;;;5072232;28;20419;-87
2023/07/28 01:00:09;;;;;;;;;;;17.70;99.90;;;;;;5071882;28;19928;-85
2023/07/28 01:02:35;;;;;;;;;;;17.80;99.90;;;;;;5073267;28;20236;-87
2023/07/28 01:05:01;;;;;;;;;;;17.80;99.90;;;;;;5090751;28;20477;-87
2023/07/28 01:07:33;;;;;;;;;;;17.80;99.90;;;;;;5073021;28;19927;-87
2023/07/28 01:10:01;;;;;;;;;;;17.80;99.90;;;;;;5071312;28;20363;-88
2023/07/28 01:12:27;;;;;;;;;;;17.80;99.90;;;;;;5072576;28;19946;-86
2023/07/28 01:14:52;;;;;;;;;;;17.80;99.90;;;;;;5056124;28;20422;-88
2023/07/28 01:17:19;;;;;;;;;;;17.70;99.90;;;;;;5090277;28;19950;-87
2023/07/28 01:19:45;;;;;;;;;;;17.70;99.90;;;;;;5071956;28;19924;-87
2023/07/28 01:22:30;;;;;;;;;;;17.80;99.90;;;;;;5090444;28;20378;-89
2023/07/28 01:25:16;;;;;;;;;;;17.70;99.90;;;;;;5073765;28;19939;-86
2023/07/28 01:27:42;;;;;;;;;;;17.70;99.90;;;;;;5025541;28;20410;-86
2023/07/28 01:30:09;;;;;;;;;;;17.80;99.90;;;;;;5094083;28;19928;-84
2023/07/28 01:32:35;;;;;;;;;;;17.80;99.90;;;;;;5075218;28;19953;-87
2023/07/28 01:35:01;;;;;;;;;;;17.80;99.90;;;;;;5056752;28;19932;-87
2023/07/28 01:37:27;;;;;;;;;;;17.70;99.90;;;;;;5069644;28;19932;-87
2023/07/28 01:39:54;;;;;;;;;;;17.70;99.90;;;;;;5091569;28;19924;-87
2023/07/28 01:42:20;;;;;;;;;;;17.80;99.90;;;;;;5069894;28;19990;-87
2023/07/28 01:44:45;;;;;;;;;;;17.80;99.90;;;;;;5052714;28;20034;-87
2023/07/28 01:47:11;;;;;;;;;;;17.80;99.90;;;;;;5088589;28;19950;-87
2023/07/28 01:49:36;;;;;;;;;;;17.80;99.90;;;;;;5089964;28;19932;-87
2023/07/28 01:52:02;;;;;;;;;;;17.80;99.90;;;;;;5069081;28;19940;-86
2023/07/28 01:54:28;;;;;;;;;;;17.80;99.90;;;;;;5067210;28;19977;-88
2023/07/28 01:56:53;;;;;;;;;;;17.80;99.90;;;;;;5073185;28;19984;-87
2023/07/28 01:59:20;;;;;;;;;;;17.80;99.90;;;;;;5094819;28;19924;-88
2023/07/28 02:01:46;;;;;;;;;;;17.80;99.90;;;;;;5075910;28;20024;-87
2023/07/28 02:04:12;;;;;;;;;;;17.80;99.90;;;;;;5079235;28;19931;-86
2023/07/28 02:06:37;;;;;;;;;;;17.80;99.90;;;;;;5094073;28;19932;-86
2023/07/28 02:09:03;;;;;;;;;;;17.80;99.90;;;;;;5059759;28;19924;-85
2023/07/28 02:11:29;;;;;;;;;;;17.80;99.90;;;;;;5094001;28;19927;-87
2023/07/28 02:13:54;;;;;;;;;;;17.80;99.90;;;;;;5074729;28;19928;-86
2023/07/28 02:16:20;;;;;;;;;;;17.80;99.90;;;;;;5089963;28;20243;-86
2023/07/28 02:18:45;;;;;;;;;;;17.80;99.90;;;;;;5068721;28;19924;-86
2023/07/28 02:21:11;;;;;;;;;;;17.80;99.90;;;;;;5064753;28;19958;-85
2023/07/28 02:23:36;;;;;;;;;;;17.80;99.90;;;;;;5070336;28;19928;-87
2023/07/28 02:26:02;;;;;;;;;;;17.80;99.90;;;;;;5071227;28;19963;-86
2023/07/28 02:28:27;;;;;;;;;;;17.80;99.90;;;;;;5067782;28;19928;-84
2023/07/28 02:30:53;;;;;;;;;;;17.80;99.90;;;;;;5087657;28;20358;-86
2023/07/28 02:33:19;;;;;;;;;;;17.80;99.90;;;;;;5069598;28;19927;-87
2023/07/28 02:35:44;;;;;;;;;;;17.80;99.90;;;;;;5087431;28;19932;-86
2023/07/28 02:38:10;;;;;;;;;;;17.80;99.90;;;;;;5070683;28;20062;-87
2023/07/28 02:40:35;;;;;;;;;;;17.80;99.90;;;;;;5053726;28;20572;-87
2023/07/28 02:43:01;;;;;;;;;;;17.80;99.90;;;;;;5069710;28;19938;-87
2023/07/28 02:45:26;;;;;;;;;;;17.80;99.90;;;;;;5068233;28;19959;-86
2023/07/28 02:47:52;;;;;;;;;;;17.80;99.90;;;;;;5086582;28;19983;-87
2023/07/28 02:50:18;;;;;;;;;;;17.80;99.90;;;;;;5069559;28;19929;-87
2023/07/28 02:52:43;;;;;;;;;;;17.80;99.90;;;;;;5070134;28;19935;-86
2023/07/28 02:55:09;;;;;;;;;;;17.80;99.90;;;;;;5063976;28;19928;-87
2023/07/28 02:57:34;;;;;;;;;;;17.80;99.90;;;;;;5068449;28;19924;-87
2023/07/28 03:00:00;;;;;;;;;;;17.80;99.90;;;;;;5086206;28;20518;-87
2023/07/28 03:02:26;;;;;;;;;;;17.80;99.90;;;;;;5087038;28;19932;-87
2023/07/28 03:04:51;;;;;;;;;;;17.80;99.90;;;;;;5048687;28;20009;-86
2023/07/28 03:07:17;;;;;;;;;;;17.80;99.90;;;;;;5051090;28;19967;-87
2023/07/28 03:09:42;;;;;;;;;;;17.80;99.90;;;;;;5066336;28;19924;-86
2023/07/28 03:12:08;;;;;;;;;;;17.80;99.90;;;;;;5066230;28;19924;-87
2023/07/28 03:14:34;;;;;;;;;;;17.80;99.90;;;;;;5084154;28;20319;-87
2023/07/28 03:16:59;;;;;;;;;;;17.80;99.90;;;;;;5082274;28;20398;-87
2023/07/28 03:19:25;;;;;;;;;;;17.80;99.90;;;;;;5082806;28;19947;-86
2023/07/28 03:21:50;;;;;;;;;;;17.80;99.90;;;;;;5065610;28;19934;-86
2023/07/28 03:24:16;;;;;;;;;;;17.80;99.90;;;;;;5082462;28;19965;-87
2023/07/28 03:26:41;;;;;;;;;;;17.80;99.90;;;;;;5050518;28;19931;-86
2023/07/28 03:29:07;;;;;;;;;;;17.80;99.90;;;;;;5082671;28;19932;-87
2023/07/28 03:31:35;;;;;;;;;;;17.80;99.90;;;;;;5082823;28;20773;-86
2023/07/28 03:34:01;;;;;;;;;;;17.80;99.90;;;;;;5066045;28;19932;-87
2023/07/28 03:36:27;;;;;;;;;;;17.80;99.90;;;;;;5065595;28;19972;-87
2023/07/28 03:38:52;;;;;;;;;;;17.80;99.90;;;;;;5048527;28;20316;-84
2023/07/28 03:41:18;;;;;;;;;;;17.80;99.90;;;;;;5081795;28;20188;-87
2023/07/28 03:43:43;;;;;;;;;;;17.70;99.90;;;;;;5064180;28;20383;-87
2023/07/28 03:46:09;;;;;;;;;;;17.70;99.90;;;;;;5064915;28;19924;-87
2023/07/28 03:48:35;;;;;;;;;;;17.80;99.90;;;;;;5047874;28;20283;-87
2023/07/28 03:51:00;;;;;;;;;;;17.70;99.90;;;;;;5084474;28;19950;-86
2023/07/28 03:53:26;;;;;;;;;;;17.70;99.90;;;;;;5064481;28;20366;-86
2023/07/28 03:55:51;;;;;;;;;;;17.70;99.90;;;;;;5062670;28;20413;-87
2023/07/28 03:58:17;;;;;;;;;;;17.80;99.90;;;;;;5065679;28;20898;-87
2023/07/28 04:00:43;;;;;;;;;;;17.80;99.90;;;;;;5085634;28;20007;-86
2023/07/28 04:03:08;;;;;;;;;;;17.80;99.90;;;;;;5071450;28;19928;-87
2023/07/28 04:05:36;;;;;;;;;;;17.80;99.90;;;;;;5074007;28;19931;-86
2023/07/28 04:08:02;;;;;;;;;;;17.80;99.90;;;;;;5073156;28;19928;-87
2023/07/28 04:10:27;;;;;;;;;;;17.80;99.90;;;;;;5073419;28;20362;-86
2023/07/28 04:12:53;;;;;;;;;;;17.80;99.90;;;;;;5073932;28;19932;-86
2023/07/28 04:15:18;;;;;;;;;;;17.80;99.90;;;;;;5091333;28;20386;-86
2023/07/28 04:17:44;;;;;;;;;;;17.80;99.90;;;;;;5090032;28;19924;-87
2023/07/28 04:20:09;;;;;;;;;;;17.80;99.90;;;;;;5091382;28;19964;-87
2023/07/28 04:22:35;;;;;;;;;;;17.80;99.90;;;;;;5073648;28;19924;-87
2023/07/28 04:25:00;;;;;;;;;;;17.80;99.90;;;;;;5091606;28;19936;-87
2023/07/28 04:27:26;;;;;;;;;;;17.80;99.90;;;;;;5091018;28;19935;-86
2023/07/28 04:29:52;;;;;;;;;;;17.90;99.90;;;;;;5064844;28;20028;-87
2023/07/28 04:32:17;;;;;;;;;;;17.80;99.90;;;;;;5065643;28;19944;-87
2023/07/28 04:34:43;;;;;;;;;;;17.80;99.90;;;;;;5051390;28;19939;-86
2023/07/28 04:37:08;;;;;;;;;;;17.80;99.90;;;;;;5065106;28;20027;-87
2023/07/28 04:39:34;;;;;;;;;;;17.80;99.90;;;;;;5067161;28;20398;-86
2023/07/28 04:41:59;;;;;;;;;;;17.90;99.90;;;;;;5060953;28;19959;-87
2023/07/28 04:44:25;;;;;;;;;;;17.90;99.90;;;;;;5085806;28;20369;-87
2023/07/28 04:46:50;;;;;;;;;;;17.90;99.90;;;;;;5067376;28;19954;-87
2023/07/28 04:49:16;;;;;;;;;;;17.90;99.90;;;;;;5067013;28;19928;-86
2023/07/28 04:51:42;;;;;;;;;;;17.90;99.90;;;;;;5066509;28;19932;-85
2023/07/28 04:54:07;;;;;;;;;;;17.90;99.90;;;;;;5083945;28;19963;-85
2023/07/28 04:56:33;;;;;;;;;;;17.90;99.90;;;;;;5085271;28;19924;-85
2023/07/28 04:58:58;;;;;;;;;;;17.90;99.90;;;;;;5066128;28;19928;-86
2023/07/28 05:01:24;;;;;;;;;;;17.90;99.90;;;;;;5094016;28;19986;-86
2023/07/28 05:03:50;;;;;;;;;;;17.90;99.90;;;;;;5077173;28;20385;-84
2023/07/28 05:06:16;;;;;;;;;;;18.00;99.90;;;;;;5060619;28;20003;-85
2023/07/28 05:08:41;;;;;;;;;;;17.90;99.90;;;;;;5077452;28;19935;-85
2023/07/28 05:11:07;;;;;;;;;;;18.00;99.90;;;;;;5077143;28;19935;-85
2023/07/28 05:13:32;;;;;;;;;;;17.90;99.90;;;;;;5060020;28;20003;-86
2023/07/28 05:15:58;;;;;;;;;;;18.00;99.90;;;;;;5095329;28;20010;-89
2023/07/28 05:18:23;;;;;;;;;;;18.00;99.90;;;;;;5077597;28;19924;-88
2023/07/28 05:20:49;;;;;;;;;;;18.00;99.90;;;;;;5077307;28;20389;-87
2023/07/28 05:23:14;;;;;;;;;;;18.00;99.90;;;;;;5093775;28;20417;-85
2023/07/28 05:25:40;;;;;;;;;;;18.10;99.90;;;;;;5094919;28;20289;-86
2023/07/28 05:28:06;;;;;;;;;;;18.00;99.90;;;;;;5060198;28;19924;-86
2023/07/28 05:30:31;;;;;;;;;;;18.00;99.90;;;;;;5091596;28;19932;-86
2023/07/28 05:32:57;;;;;;;;;;;18.10;99.90;;;;;;5087129;28;19924;-86
2023/07/28 05:35:22;;;;;;;;;;;18.10;99.90;;;;;;5086981;28;19977;-87
2023/07/28 05:37:48;;;;;;;;;;;18.10;99.90;;;;;;5070365;28;19935;-86
2023/07/28 05:40:14;;;;;;;;;;;18.10;99.90;;;;;;5088277;28;19924;-86
2023/07/28 05:42:39;;;;;;;;;;;18.20;99.90;;;;;;5062094;28;19928;-86
2023/07/28 05:45:05;;;;;;;;;;;18.20;99.90;;;;;;5084432;28;19930;-90
2023/07/28 05:47:30;;;;;;;;;;;18.30;99.90;;;;;;5052711;28;19959;-86
2023/07/28 05:49:56;;;;;;;;;;;18.20;99.90;;;;;;5085795;28;19970;-85
2023/07/28 05:52:25;;;;;;;;;;;18.20;99.90;;;;;;5065971;28;19924;-86
2023/07/28 05:54:50;;;;;;;;;;;18.20;99.90;;;;;;5080246;28;19978;-86
2023/07/28 05:57:16;;;;;;;;;;;18.30;99.90;;;;;;5063244;28;19925;-86
2023/07/28 05:59:41;;;;;;;;;;;18.30;99.90;;;;;;5084903;28;19927;-86
2023/07/28 06:02:07;;;;;;;;;;;18.30;99.90;;;;;;5086172;28;20619;-85
2023/07/28 06:04:32;;;;;;;;;;;18.40;99.90;;;;;;5067097;28;19950;-85
2023/07/28 06:06:58;;;;;;;;;;;18.40;99.90;;;;;;5082830;28;20018;-86
2023/07/28 06:09:23;;;;;;;;;;;18.40;99.90;;;;;;5083157;28;20275;-85
2023/07/28 06:11:49;;;;;;;;;;;18.40;99.90;;;;;;5082801;28;19928;-86
2023/07/28 06:14:15;;;;;;;;;;;18.50;99.90;;;;;;5055056;28;20282;-86
2023/07/28 06:16:40;;;;;;;;;;;18.50;99.90;;;;;;5086119;28;19930;-86
2023/07/28 06:19:06;;;;;;;;;;;18.50;99.90;;;;;;5069191;28;19963;-85
2023/07/28 06:21:32;;;;;;;;;;;18.50;99.90;;;;;;5063960;28;20394;-85
2023/07/28 06:23:57;;;;;;;;;;;18.50;99.90;;;;;;5091705;28;19931;-85
2023/07/28 06:26:23;;;;;;;;;;;18.60;99.90;;;;;;5055508;28;19934;-84
2023/07/28 06:28:48;;;;;;;;;;;18.60;99.90;;;;;;5086855;28;20370;-85
2023/07/28 06:31:14;;;;;;;;;;;18.70;99.90;;;;;;5051167;28;19946;-86
2023/07/28 06:33:39;;;;;;;;;;;18.70;99.90;;;;;;5087280;28;20019;-85
2023/07/28 06:36:05;;;;;;;;;;;18.80;99.90;;;;;;5086442;28;20390;-85
2023/07/28 06:38:30;;;;;;;;;;;18.80;99.90;;;;;;5087821;28;20468;-84
2023/07/28 06:40:56;;;;;;;;;;;18.90;99.90;;;;;;5067385;28;19928;-86
2023/07/28 06:43:22;;;;;;;;;;;19.00;99.90;;;;;;5069608;28;19931;-85
2023/07/28 06:45:50;;;;;;;;;;;19.20;99.90;;;;;;5087584;28;20375;-85
2023/07/28 06:48:16;;;;;;;;;;;19.30;99.90;;;;;;5088455;28;19928;-87
2023/07/28 06:50:41;;;;;;;;;;;19.30;99.90;;;;;;5084441;28;19939;-86
2023/07/28 06:53:07;;;;;;;;;;;19.50;99.90;;;;;;5069613;28;20317;-85
2023/07/28 06:55:33;;;;;;;;;;;19.60;99.90;;;;;;5059158;28;19925;-85
2023/07/28 06:57:58;;;;;;;;;;;19.70;99.90;;;;;;5086540;28;19986;-85
2023/07/28 07:00:24;;;;;;;;;;;19.80;99.90;;;;;;5069504;28;19932;-85
2023/07/28 07:02:49;;;;;;;;;;;19.90;99.90;;;;;;5074692;28;19974;-85
2023/07/28 07:05:15;;;;;;;;;;;20.00;99.90;;;;;;5092199;28;19989;-85
2023/07/28 07:07:41;;;;;;;;;;;20.10;99.90;;;;;;5089400;28;20271;-85
2023/07/28 07:10:07;;;;;;;;;;;20.10;99.90;;;;;;5087432;28;19924;-85
2023/07/28 07:12:33;;;;;;;;;;;20.00;99.90;;;;;;5086131;28;19924;-84
2023/07/28 07:14:58;;;;;;;;;;;20.00;99.90;;;;;;5087743;28;19954;-83
2023/07/28 07:17:24;;;;;;;;;;;20.00;99.90;;;;;;5067996;28;19935;-84
2023/07/28 07:19:49;;;;;;;;;;;19.90;99.90;;;;;;5085265;28;19977;-83
2023/07/28 07:22:15;;;;;;;;;;;19.90;99.90;;;;;;5064082;28;19934;-84
2023/07/28 07:24:40;;;;;;;;;;;20.00;99.90;;;;;;5092590;28;19979;-84
2023/07/28 07:27:06;;;;;;;;;;;20.00;99.90;;;;;;5092229;28;20427;-84
2023/07/28 07:29:32;;;;;;;;;;;19.90;99.90;;;;;;5092504;28;19968;-86
2023/07/28 07:31:58;;;;;;;;;;;19.90;99.90;;;;;;5073200;28;19950;-83
2023/07/28 07:34:23;;;;;;;;;;;19.90;99.90;;;;;;5090362;28;19998;-84
2023/07/28 07:36:49;;;;;;;;;;;19.90;99.90;;;;;;5088933;28;20419;-85
2023/07/28 07:39:15;;;;;;;;;;;19.90;99.90;;;;;;5053081;28;19924;-84
2023/07/28 07:41:40;;;;;;;;;;;20.00;99.90;;;;;;5084465;28;19934;-84
2023/07/28 07:44:06;;;;;;;;;;;20.00;99.90;;;;;;5084822;28;19924;-84
2023/07/28 07:46:32;;;;;;;;;;;20.10;99.90;;;;;;5086619;28;20459;-84
2023/07/28 07:48:58;;;;;;;;;;;20.10;99.90;;;;;;5089033;28;19924;-85
2023/07/28 07:51:23;;;;;;;;;;;20.10;99.90;;;;;;5092071;28;20409;-84
2023/07/28 07:53:49;;;;;;;;;;;20.20;99.90;;;;;;5079039;28;19935;-85
2023/07/28 07:56:14;;;;;;;;;;;20.10;99.90;;;;;;5072650;28;19971;-85
2023/07/28 07:58:40;;;;;;;;;;;20.10;99.90;;;;;;5084480;28;20022;-87
2023/07/28 08:01:06;;;;;;;;;;;20.10;99.90;;;;;;5081121;28;19967;-85
2023/07/28 08:03:31;;;;;;;;;;;20.30;99.90;;;;;;5089055;28;20348;-85
2023/07/28 08:05:57;;;;;;;;;;;20.60;99.90;;;;;;5084471;28;19928;-85
2023/07/28 08:08:23;;;;;;;;;;;20.70;99.90;;;;;;5090113;28;19924;-84
2023/07/28 08:10:52;;;;;;;;;;;20.80;99.90;;;;;;5091401;28;19924;-87
2023/07/28 08:13:17;;;;;;;;;;;20.80;99.90;;;;;;5053037;28;20387;-88
2023/07/28 08:15:43;;;;;;;;;;;20.80;99.90;;;;;;5068260;28;19935;-88
2023/07/28 08:18:09;;;;;;;;;;;20.80;99.90;;;;;;5087277;28;20361;-87
2023/07/28 08:20:34;;;;;;;;;;;20.80;99.90;;;;;;5066314;28;19924;-88
2023/07/28 08:23:00;;;;;;;;;;;20.70;99.90;;;;;;5065095;28;19932;-87
2023/07/28 08:25:25;;;;;;;;;;;20.70;99.90;;;;;;5084010;28;19924;-88
2023/07/28 08:27:51;;;;;;;;;;;20.80;99.90;;;;;;5051648;28;20310;-87
2023/07/28 08:30:17;;;;;;;;;;;21.40;99.90;;;;;;5068863;28;19947;-87
2023/07/28 08:32:43;;;;;;;;;;;21.80;99.90;;;;;;5062574;28;19935;-88
2023/07/28 08:35:08;;;;;;;;;;;22.00;99.90;;;;;;5084279;28;20022;-87
2023/07/28 08:37:34;;;;;;;;;;;22.20;99.90;;;;;;5065367;28;19990;-89
2023/07/28 08:40:00;;;;;;;;;;;22.10;99.90;;;;;;5051952;28;20438;-88
2023/07/28 08:42:25;;;;;;;;;;;22.20;99.90;;;;;;5049063;28;19939;-91
2023/07/28 08:44:54;;;;;;;;;;;22.20;99.90;;;;;;5050129;28;20070;-84
2023/07/28 08:47:20;;;;;;;;;;;22.30;99.90;;;;;;5089578;28;19932;-85
2023/07/28 08:49:45;;;;;;;;;;;22.70;99.90;;;;;;5091560;28;20302;-85
2023/07/28 08:52:14;;;;;;;;;;;23.00;99.90;;;;;;5091277;28;19935;-85
2023/07/28 08:54:40;;;;;;;;;;;23.20;99.90;;;;;;5091367;28;19924;-84
2023/07/28 08:57:05;;;;;;;;;;;23.20;99.90;;;;;;5073585;28;19973;-85
2023/07/28 08:59:31;;;;;;;;;;;23.10;99.90;;;;;;5071718;28;19935;-85
2023/07/28 09:02:01;;;;;;;;;;;22.90;99.90;;;;;;5086259;28;20107;-86
2023/07/28 09:04:27;;;;;;;;;;;22.70;99.90;;;;;;5091031;28;20446;-85
2023/07/28 09:06:52;;;;;;;;;;;22.40;99.90;;;;;;5091300;28;20018;-84
2023/07/28 09:09:20;;;;;;;;;;;22.10;99.90;;;;;;5072325;28;20012;-84
2023/07/28 09:11:46;;;;;;;;;;;21.90;99.90;;;;;;5088312;28;20383;-84
2023/07/28 09:14:13;;;;;;;;;;;21.80;99.90;;;;;;5089144;28;20022;-84
2023/07/28 09:16:38;;;;;;;;;;;21.80;99.90;;;;;;5089092;28;19930;-84
2023/07/28 09:19:05;;;;;;;;;;;22.10;99.90;;;;;;5070711;28;20407;-86
2023/07/28 09:21:31;;;;;;;;;;;22.70;99.90;;;;;;5090576;28;19928;-85
2023/07/28 09:23:59;;;;;;;;;;;22.90;99.90;;;;;;5095821;28;19930;-85
2023/07/28 09:26:24;;;;;;;;;;;23.00;99.90;;;;;;5075361;28;20015;-84
2023/07/28 09:28:50;;;;;;;;;;;23.00;99.90;;;;;;5089210;28;20007;-85
2023/07/28 09:31:16;;;;;;;;;;;22.80;99.90;;;;;;5066559;28;19977;-86
2023/07/28 09:33:46;;;;;;;;;;;22.60;99.90;;;;;;5065620;28;19928;-84
2023/07/28 09:36:15;;;;;;;;;;;22.50;99.90;;;;;;5064039;28;19981;-85
2023/07/28 09:38:41;;;;;;;;;;;22.30;99.90;;;;;;5086119;28;20327;-85
2023/07/28 09:41:10;;;;;;;;;;;22.20;99.90;;;;;;5083864;28;19931;-85
2023/07/28 09:43:36;;;;;;;;;;;22.10;99.90;;;;;;5085188;28;19935;-85
2023/07/28 09:46:06;;;;;;;;;;;22.30;99.90;;;;;;5089974;28;19928;-84
2023/07/28 09:48:33;;;;;;;;;;;22.50;99.90;;;;;;5078472;28;19939;-86
2023/07/28 09:51:00;;;;;;;;;;;22.50;99.90;;;;;;5067410;28;20394;-85
2023/07/28 09:53:27;;;;;;;;;;;22.30;99.90;;;;;;5085794;28;19975;-85
2023/07/28 09:55:53;;;;;;;;;;;22.00;99.90;;;;;;5068640;28;19959;-85
2023/07/28 09:58:19;;;;;;;;;;;22.00;99.90;;;;;;5086685;28;19970;-85
2023/07/28 10:00:46;;;;;;;;;;;22.30;99.90;;;;;;5086167;28;19928;-85
2023/07/28 10:03:12;;;;;;;;;;;22.70;99.90;;;;;;5086143;28;20431;-85
2023/07/28 10:05:38;;;;;;;;;;;23.30;99.90;;;;;;5086541;28;19931;-85
2023/07/28 10:08:04;;;;;;;;;;;23.80;99.90;;;;;;5089570;28;19924;-86
2023/07/28 10:10:30;;;;;;;;;;;23.90;99.90;;;;;;5086490;28;20317;-86
2023/07/28 10:12:57;;;;;;;;;;;23.80;99.90;;;;;;5087027;28;19958;-86
2023/07/28 10:15:29;;;;;;;;;;;23.40;99.90;;;;;;5069540;28;19970;-86
2023/07/28 10:17:57;;;;;;;;;;;23.10;99.90;;;;;;5070859;28;19928;-86
2023/07/28 10:20:30;;;;;;;;;;;22.70;99.90;;;;;;5083005;28;20745;-87
2023/07/28 10:23:03;;;;;;;;;;;22.40;99.90;;;;;;5086188;28;19931;-85
2023/07/28 10:25:31;;;;;;;;;;;22.20;99.90;;;;;;5069093;28;20072;-85
2023/07/28 10:27:57;;;;;;;;;;;22.00;99.90;;;;;;5088294;28;19924;-86
2023/07/28 10:30:22;;;;;;;;;;;21.90;99.90;;;;;;5053143;28;19946;-86
2023/07/28 10:32:50;;;;;;;;;;;21.80;99.90;;;;;;5085758;28;19939;-84
2023/07/28 10:35:22;;;;;;;;;;;21.70;99.90;;;;;;5089765;28;19924;-87
2023/07/28 10:37:47;;;;;;;;;;;21.50;99.90;;;;;;5075412;28;19928;-86
2023/07/28 10:40:33;;;;;;;;;;;21.40;99.90;;;;;;5075564;28;19947;-87
2023/07/28 10:42:59;;;;;;;;;;;21.30;99.90;;;;;;5075575;28;19928;-87
2023/07/28 10:45:26;;;;;;;;;;;21.40;99.90;;;;;;5092063;28;19961;-86
2023/07/28 10:47:55;;;;;;;;;;;21.70;99.90;;;;;;5075039;28;19928;-85
2023/07/28 10:50:21;;;;;;;;;;;21.70;99.90;;;;;;5074107;28;19928;-86
2023/07/28 10:52:46;;;;;;;;;;;21.70;99.90;;;;;;5093131;28;19932;-86
2023/07/28 10:55:13;;;;;;;;;;;21.70;99.90;;;;;;5058214;28;19924;-86
2023/07/28 10:57:38;;;;;;;;;;;21.90;99.90;;;;;;5074724;28;19931;-87
2023/07/28 11:00:04;;;;;;;;;;;22.30;99.90;;;;;;5073954;28;20290;-86
2023/07/28 11:02:31;;;;;;;;;;;22.60;99.90;;;;;;5074897;28;19924;-85
2023/07/28 11:04:56;;;;;;;;;;;22.70;99.90;;;;;;5074569;28;19923;-86
2023/07/28 11:07:22;;;;;;;;;;;22.60;99.90;;;;;;5074978;28;19924;-87
2023/07/28 11:09:48;;;;;;;;;;;22.50;99.90;;;;;;5073811;28;20014;-87
2023/07/28 11:12:14;;;;;;;;;;;22.40;99.90;;;;;;5058034;28;20074;-86
2023/07/28 11:14:39;;;;;;;;;;;22.60;99.90;;;;;;5075261;28;19928;-87
2023/07/28 11:17:05;;;;;;;;;;;22.80;99.90;;;;;;5074910;28;19947;-87
2023/07/28 11:19:31;;;;;;;;;;;22.90;99.90;;;;;;5092770;28;19934;-87
2023/07/28 11:21:58;;;;;;;;;;;22.90;99.90;;;;;;5090537;28;19981;-84
2023/07/28 11:24:23;;;;;;;;;;;22.90;99.90;;;;;;5071787;28;19935;-86
2023/07/28 11:26:49;;;;;;;;;;;22.90;99.90;;;;;;5092732;28;19924;-87
2023/07/28 11:29:15;;;;;;;;;;;22.80;99.90;;;;;;5074716;28;19924;-86
2023/07/28 11:31:41;;;;;;;;;;;22.80;99.90;;;;;;5092359;28;20068;-85
2023/07/28 11:34:16;;;;;;;;;;;23.00;99.90;;;;;;5057288;28;19989;-86
2023/07/28 11:36:42;;;;;;;;;;;23.40;99.90;;;;;;5075264;28;20301;-87
2023/07/28 11:39:08;;;;;;;;;;;23.70;99.90;;;;;;5074645;28;19928;-86
2023/07/28 11:41:34;;;;;;;;;;;23.90;99.90;;;;;;5074751;28;19925;-86
2023/07/28 11:44:00;;;;;;;;;;;24.10;99.90;;;;;;5056592;28;19924;-86
2023/07/28 11:46:39;;;;;;;;;;;24.20;99.90;;;;;;5074327;28;20034;-86
2023/07/28 11:49:13;;;;;;;;;;;24.50;99.90;;;;;;5057404;28;19967;-87
2023/07/28 11:51:39;;;;;;;;;;;24.70;99.90;;;;;;5073810;28;19971;-87
2023/07/28 11:54:06;;;;;;;;;;;25.00;99.90;;;;;;5073382;28;20532;-86
2023/07/28 11:56:31;;;;;;;;;;;25.10;99.90;;;;;;5057124;28;19939;-87
2023/07/28 11:58:58;;;;;;;;;;;25.20;99.90;;;;;;5057937;28;19928;-87
2023/07/28 12:01:23;;;;;;;;;;;25.20;99.90;;;;;;5073763;28;20020;-87
2023/07/28 12:03:49;;;;;;;;;;;25.10;99.90;;;;;;5073747;28;19997;-88
2023/07/28 12:06:14;;;;;;;;;;;25.10;99.90;;;;;;5072015;28;19924;-86
2023/07/28 12:08:41;;;;;;;;;;;25.20;99.90;;;;;;5073641;28;19924;-86
2023/07/28 12:11:12;;;;;;;;;;;25.00;99.90;;;;;;5073739;28;19935;-87
2023/07/28 12:13:49;;;;;;;;;;;24.80;99.90;;;;;;5073597;28;19973;-87
2023/07/28 12:16:31;;;;;;;;;;;24.50;99.90;;;;;;5056799;28;19924;-86
2023/07/28 12:18:57;;;;;;;;;;;24.30;99.90;;;;;;5057218;28;19924;-90
2023/07/28 12:21:23;;;;;;;;;;;24.00;99.90;;;;;;5075591;28;19967;-87
2023/07/28 12:23:49;;;;;;;;;;;23.80;99.90;;;;;;5056390;28;19997;-86
2023/07/28 12:26:14;;;;;;;;;;;23.80;99.90;;;;;;5084682;28;19956;-88
2023/07/28 12:28:40;;;;;;;;;;;23.90;99.90;;;;;;5052956;28;19924;-87
2023/07/28 12:31:05;;;;;;;;;;;24.20;99.90;;;;;;5086884;28;20370;-84
2023/07/28 12:33:31;;;;;;;;;;;24.40;99.90;;;;;;5071686;28;19932;-84
2023/07/28 12:35:56;;;;;;;;;;;24.50;99.90;;;;;;5089484;28;19928;-85
2023/07/28 12:38:22;;;;;;;;;;;24.70;99.90;;;;;;5085228;28;20002;-86
2023/07/28 12:40:47;;;;;;;;;;;24.80;99.90;;;;;;5073213;28;19935;-85
2023/07/28 12:43:13;;;;;;;;;;;25.10;99.90;;;;;;5090213;28;19947;-90
2023/07/28 12:45:38;;;;;;;;;;;25.30;99.90;;;;;;5071162;28;19924;-87
2023/07/28 12:48:04;;;;;;;;;;;25.60;99.90;;;;;;5070612;28;20379;-86
2023/07/28 12:50:30;;;;;;;;;;;25.70;99.90;;;;;;5091291;28;19924;-87
2023/07/28 12:52:56;;;;;;;;;;;25.60;99.90;;;;;;5073490;28;20264;-87
2023/07/28 12:55:21;;;;;;;;;;;25.40;99.90;;;;;;5088086;28;19936;-88
2023/07/28 12:57:50;;;;;;;;;;;25.40;99.90;;;;;;5081407;28;19924;-87
2023/07/28 13:00:16;;;;;;;;;;;25.50;99.90;;;;;;5069821;28;19970;-87
2023/07/28 13:02:42;;;;;;;;;;;25.80;99.90;;;;;;5085720;28;20015;-89
2023/07/28 13:05:10;;;;;;;;;;;26.00;99.90;;;;;;5087929;28;19928;-86
2023/07/28 13:07:36;;;;;;;;;;;26.20;99.90;;;;;;5090290;28;19977;-86
2023/07/28 13:10:03;;;;;;;;;;;26.20;99.90;;;;;;5068427;28;19936;-84
2023/07/28 13:12:28;;;;;;;;;;;26.30;99.90;;;;;;5088277;28;20287;-86
2023/07/28 13:14:54;;;;;;;;;;;26.40;99.90;;;;;;5086233;28;19935;-87
2023/07/28 13:17:20;;;;;;;;;;;26.40;99.90;;;;;;5088257;28;19924;-88
2023/07/28 13:19:45;;;;;;;;;;;26.30;99.90;;;;;;5087405;28;19924;-86
2023/07/28 13:22:11;;;;;;;;;;;26.10;99.90;;;;;;5090838;28;19951;-86
2023/07/28 13:24:37;;;;;;;;;;;25.80;99.90;;;;;;5095090;28;19979;-85
2023/07/28 13:27:03;;;;;;;;;;;25.70;99.90;;;;;;5076742;28;19935;-85
2023/07/28 13:29:28;;;;;;;;;;;25.70;99.90;;;;;;5094897;28;19924;-85
2023/07/28 13:31:57;;;;;;;;;;;25.70;99.90;;;;;;5093400;28;19928;-86
2023/07/28 13:34:22;;;;;;;;;;;25.80;99.90;;;;;;5076827;28;19963;-86
2023/07/28 13:36:48;;;;;;;;;;;25.90;99.90;;;;;;5094584;28;20341;-86
2023/07/28 13:39:13;;;;;;;;;;;26.10;99.90;;;;;;5094522;28;19947;-85
2023/07/28 13:41:39;;;;;;;;;;;26.10;99.90;;;;;;5092569;28;19930;-87
2023/07/28 13:44:04;;;;;;;;;;;26.10;99.90;;;;;;5059433;28;19931;-87
2023/07/28 13:46:30;;;;;;;;;;;26.00;99.90;;;;;;5094473;28;20289;-86
2023/07/28 13:48:55;;;;;;;;;;;26.00;99.90;;;;;;5076922;28;19924;-86
2023/07/28 13:51:21;;;;;;;;;;;25.90;99.90;;;;;;5059846;28;19928;-86
2023/07/28 13:53:47;;;;;;;;;;;25.90;99.90;;;;;;5093259;28;19928;-86
2023/07/28 13:56:12;;;;;;;;;;;25.90;99.90;;;;;;5076306;28;19930;-87
2023/07/28 13:58:38;;;;;;;;;;;25.80;99.90;;;;;;5094209;28;19981;-87
2023/07/28 14:01:03;;;;;;;;;;;25.60;99.90;;;;;;5093926;28;19924;-86
2023/07/28 14:03:29;;;;;;;;;;;25.50;99.90;;;;;;5092315;28;20017;-87
2023/07/28 14:05:54;;;;;;;;;;;25.30;99.90;;;;;;5094164;28;19972;-86
2023/07/28 14:08:21;;;;;;;;;;;25.20;99.90;;;;;;5094298;28;19931;-86
2023/07/28 14:10:46;;;;;;;;;;;25.20;99.90;;;;;;5076273;28;19934;-86